sensor_id;sensor_type;location;lat;lon;timestamp;P1;durP1;ratioP1;P2;durP2;ratioP2
82415;SDS011;72058;47.782;10.618;2023-12-04T00:00:36;12.65;;;10.90;;
82415;SDS011;72058;47.782;10.618;2023-12-04T00:03:02;15.10;;;13.68;;
82415;SDS011;72058;47.782;10.618;2023-12-04T00:05:27;16.48;;;14.85;;
82415;SDS011;72058;47.782;10.618;2023-12-04T00:07:52;11.33;;;10.03;;
82415;SDS011;72058;47.782;10.618;2023-12-04T00:10:18;14.10;;;12.63;;
82415;SDS011;72058;47.782;10.618;2023-12-04T00:12:43;11.73;;;10.03;;
82415;SDS011;72058;47.782;10.618;2023-12-04T00:15:09;15.40;;;13.00;;
82415;SDS011;72058;47.782;10.618;2023-12-04T00:17:34;15.45;;;14.05;;
82415;SDS011;72058;47.782;10.618;2023-12-04T00:20:04;12.57;;;11.02;;
82415;SDS011;72058;47.782;10.618;2023-12-04T00:22:30;15.30;;;14.05;;
82415;SDS011;72058;47.782;10.618;2023-12-04T00:24:56;14.80;;;13.38;;
82415;SDS011;72058;47.782;10.618;2023-12-04T00:27:21;13.43;;;11.37;;
82415;SDS011;72058;47.782;10.618;2023-12-04T00:29:51;15.65;;;14.30;;
82415;SDS011;72058;47.782;10.618;2023-12-04T00:32:17;13.10;;;11.82;;
82415;SDS011;72058;47.782;10.618;2023-12-04T00:34:42;16.53;;;14.77;;
82415;SDS011;72058;47.782;10.618;2023-12-04T00:37:07;13.43;;;12.17;;
82415;SDS011;72058;47.782;10.618;2023-12-04T00:39:33;13.50;;;11.90;;
82415;SDS011;72058;47.782;10.618;2023-12-04T00:41:58;15.80;;;12.60;;
82415;SDS011;72058;47.782;10.618;2023-12-04T00:44:23;15.00;;;11.47;;
82415;SDS011;72058;47.782;10.618;2023-12-04T00:46:49;15.73;;;12.87;;
82415;SDS011;72058;47.782;10.618;2023-12-04T00:49:14;15.40;;;14.00;;
82415;SDS011;72058;47.782;10.618;2023-12-04T00:51:39;13.47;;;9.13;;
82415;SDS011;72058;47.782;10.618;2023-12-04T00:54:05;11.27;;;9.23;;
82415;SDS011;72058;47.782;10.618;2023-12-04T00:56:30;13.40;;;12.10;;
82415;SDS011;72058;47.782;10.618;2023-12-04T00:58:55;14.03;;;12.83;;
82415;SDS011;72058;47.782;10.618;2023-12-04T01:01:21;10.87;;;9.67;;
82415;SDS011;72058;47.782;10.618;2023-12-04T01:03:46;13.17;;;12.10;;
82415;SDS011;72058;47.782;10.618;2023-12-04T01:06:19;10.57;;;9.60;;
82415;SDS011;72058;47.782;10.618;2023-12-04T01:08:48;11.68;;;10.65;;
82415;SDS011;72058;47.782;10.618;2023-12-04T01:11:17;11.68;;;10.77;;
82415;SDS011;72058;47.782;10.618;2023-12-04T01:13:44;11.00;;;10.10;;
82415;SDS011;72058;47.782;10.618;2023-12-04T01:16:10;12.55;;;11.35;;
82415;SDS011;72058;47.782;10.618;2023-12-04T01:18:35;11.57;;;10.67;;
82415;SDS011;72058;47.782;10.618;2023-12-04T01:21:00;12.30;;;11.33;;
82415;SDS011;72058;47.782;10.618;2023-12-04T01:23:26;11.23;;;10.18;;
82415;SDS011;72058;47.782;10.618;2023-12-04T01:25:51;13.33;;;12.47;;
82415;SDS011;72058;47.782;10.618;2023-12-04T01:28:16;11.37;;;10.20;;
82415;SDS011;72058;47.782;10.618;2023-12-04T01:30:42;10.98;;;9.98;;
82415;SDS011;72058;47.782;10.618;2023-12-04T01:33:07;10.88;;;10.05;;
82415;SDS011;72058;47.782;10.618;2023-12-04T01:35:33;11.40;;;10.43;;
82415;SDS011;72058;47.782;10.618;2023-12-04T01:37:58;12.10;;;11.30;;
82415;SDS011;72058;47.782;10.618;2023-12-04T01:40:24;11.38;;;10.20;;
82415;SDS011;72058;47.782;10.618;2023-12-04T01:42:49;12.13;;;11.20;;
82415;SDS011;72058;47.782;10.618;2023-12-04T01:45:15;11.45;;;10.43;;
82415;SDS011;72058;47.782;10.618;2023-12-04T01:47:41;12.02;;;10.85;;
82415;SDS011;72058;47.782;10.618;2023-12-04T01:50:07;13.35;;;12.07;;
82415;SDS011;72058;47.782;10.618;2023-12-04T01:52:34;11.60;;;10.70;;
82415;SDS011;72058;47.782;10.618;2023-12-04T01:55:00;10.45;;;9.10;;
82415;SDS011;72058;47.782;10.618;2023-12-04T01:57:26;12.13;;;10.98;;
82415;SDS011;72058;47.782;10.618;2023-12-04T01:59:52;11.77;;;10.77;;
82415;SDS011;72058;47.782;10.618;2023-12-04T02:02:17;9.33;;;8.43;;
82415;SDS011;72058;47.782;10.618;2023-12-04T02:04:42;12.63;;;11.60;;
82415;SDS011;72058;47.782;10.618;2023-12-04T02:07:08;11.68;;;10.55;;
82415;SDS011;72058;47.782;10.618;2023-12-04T02:09:37;12.77;;;11.65;;
82415;SDS011;72058;47.782;10.618;2023-12-04T02:12:03;13.20;;;12.20;;
82415;SDS011;72058;47.782;10.618;2023-12-04T02:14:29;14.85;;;12.10;;
82415;SDS011;72058;47.782;10.618;2023-12-04T02:16:54;10.80;;;10.10;;
82415;SDS011;72058;47.782;10.618;2023-12-04T02:19:22;10.30;;;9.40;;
82415;SDS011;72058;47.782;10.618;2023-12-04T02:21:48;12.85;;;11.57;;
82415;SDS011;72058;47.782;10.618;2023-12-04T02:24:13;13.20;;;12.13;;
82415;SDS011;72058;47.782;10.618;2023-12-04T02:26:58;10.30;;;9.65;;
82415;SDS011;72058;47.782;10.618;2023-12-04T02:29:30;11.32;;;10.43;;
82415;SDS011;72058;47.782;10.618;2023-12-04T02:32:00;10.40;;;9.50;;
82415;SDS011;72058;47.782;10.618;2023-12-04T02:34:28;9.75;;;8.82;;
82415;SDS011;72058;47.782;10.618;2023-12-04T02:36:57;9.90;;;9.05;;
82415;SDS011;72058;47.782;10.618;2023-12-04T02:39:24;12.98;;;12.10;;
82415;SDS011;72058;47.782;10.618;2023-12-04T02:41:50;9.73;;;8.93;;
82415;SDS011;72058;47.782;10.618;2023-12-04T02:44:16;10.93;;;10.02;;
82415;SDS011;72058;47.782;10.618;2023-12-04T02:46:41;11.90;;;11.10;;
82415;SDS011;72058;47.782;10.618;2023-12-04T02:49:06;9.77;;;9.07;;
82415;SDS011;72058;47.782;10.618;2023-12-04T02:51:32;9.30;;;8.57;;
82415;SDS011;72058;47.782;10.618;2023-12-04T02:53:57;9.33;;;8.80;;
82415;SDS011;72058;47.782;10.618;2023-12-04T02:56:22;15.60;;;14.80;;
82415;SDS011;72058;47.782;10.618;2023-12-04T02:58:48;7.90;;;7.30;;
82415;SDS011;72058;47.782;10.618;2023-12-04T03:01:13;7.63;;;7.23;;
82415;SDS011;72058;47.782;10.618;2023-12-04T03:03:38;7.70;;;7.27;;
82415;SDS011;72058;47.782;10.618;2023-12-04T03:06:04;9.60;;;8.83;;
82415;SDS011;72058;47.782;10.618;2023-12-04T03:08:29;10.00;;;9.30;;
82415;SDS011;72058;47.782;10.618;2023-12-04T03:10:55;8.73;;;8.20;;
82415;SDS011;72058;47.782;10.618;2023-12-04T03:13:20;8.97;;;8.30;;
82415;SDS011;72058;47.782;10.618;2023-12-04T03:15:45;9.20;;;8.63;;
82415;SDS011;72058;47.782;10.618;2023-12-04T03:18:11;9.73;;;9.03;;
82415;SDS011;72058;47.782;10.618;2023-12-04T03:20:36;5.93;;;5.43;;
82415;SDS011;72058;47.782;10.618;2023-12-04T03:23:01;8.97;;;8.27;;
82415;SDS011;72058;47.782;10.618;2023-12-04T03:25:26;8.50;;;7.73;;
82415;SDS011;72058;47.782;10.618;2023-12-04T03:27:52;10.23;;;9.73;;
82415;SDS011;72058;47.782;10.618;2023-12-04T03:30:17;10.13;;;9.47;;
82415;SDS011;72058;47.782;10.618;2023-12-04T03:32:43;10.32;;;9.52;;
82415;SDS011;72058;47.782;10.618;2023-12-04T03:35:08;7.77;;;7.33;;
82415;SDS011;72058;47.782;10.618;2023-12-04T03:37:33;9.27;;;8.63;;
82415;SDS011;72058;47.782;10.618;2023-12-04T03:39:59;10.53;;;9.70;;
82415;SDS011;72058;47.782;10.618;2023-12-04T03:42:24;9.57;;;9.02;;
82415;SDS011;72058;47.782;10.618;2023-12-04T03:44:49;9.53;;;8.27;;
82415;SDS011;72058;47.782;10.618;2023-12-04T03:47:15;8.60;;;8.10;;
82415;SDS011;72058;47.782;10.618;2023-12-04T03:49:40;9.27;;;8.67;;
82415;SDS011;72058;47.782;10.618;2023-12-04T03:52:05;8.90;;;8.37;;
82415;SDS011;72058;47.782;10.618;2023-12-04T03:54:31;9.63;;;8.80;;
82415;SDS011;72058;47.782;10.618;2023-12-04T03:56:56;9.88;;;8.98;;
82415;SDS011;72058;47.782;10.618;2023-12-04T03:59:21;9.30;;;8.70;;
82415;SDS011;72058;47.782;10.618;2023-12-04T04:01:47;9.85;;;9.20;;
82415;SDS011;72058;47.782;10.618;2023-12-04T04:04:12;9.30;;;8.80;;
82415;SDS011;72058;47.782;10.618;2023-12-04T04:06:38;10.40;;;9.65;;
82415;SDS011;72058;47.782;10.618;2023-12-04T04:09:04;9.52;;;8.65;;
82415;SDS011;72058;47.782;10.618;2023-12-04T04:11:30;11.75;;;10.88;;
82415;SDS011;72058;47.782;10.618;2023-12-04T04:13:55;10.23;;;9.38;;
82415;SDS011;72058;47.782;10.618;2023-12-04T04:16:21;9.57;;;8.93;;
82415;SDS011;72058;47.782;10.618;2023-12-04T04:18:46;9.77;;;9.00;;
82415;SDS011;72058;47.782;10.618;2023-12-04T04:21:11;10.18;;;9.55;;
82415;SDS011;72058;47.782;10.618;2023-12-04T04:23:37;10.77;;;10.05;;
82415;SDS011;72058;47.782;10.618;2023-12-04T04:26:02;8.77;;;8.17;;
82415;SDS011;72058;47.782;10.618;2023-12-04T04:28:28;8.18;;;7.57;;
82415;SDS011;72058;47.782;10.618;2023-12-04T04:30:53;8.97;;;8.30;;
82415;SDS011;72058;47.782;10.618;2023-12-04T04:33:18;11.63;;;10.97;;
82415;SDS011;72058;47.782;10.618;2023-12-04T04:35:44;6.80;;;6.20;;
82415;SDS011;72058;47.782;10.618;2023-12-04T04:38:09;9.00;;;8.60;;
82415;SDS011;72058;47.782;10.618;2023-12-04T04:40:34;9.90;;;9.30;;
82415;SDS011;72058;47.782;10.618;2023-12-04T04:43:00;8.87;;;8.27;;
82415;SDS011;72058;47.782;10.618;2023-12-04T04:45:25;10.90;;;10.30;;
82415;SDS011;72058;47.782;10.618;2023-12-04T04:47:50;9.20;;;8.70;;
82415;SDS011;72058;47.782;10.618;2023-12-04T04:50:16;8.70;;;8.07;;
82415;SDS011;72058;47.782;10.618;2023-12-04T04:52:41;10.00;;;9.20;;
82415;SDS011;72058;47.782;10.618;2023-12-04T04:55:07;11.73;;;10.83;;
82415;SDS011;72058;47.782;10.618;2023-12-04T04:57:32;12.45;;;11.68;;
82415;SDS011;72058;47.782;10.618;2023-12-04T04:59:58;11.50;;;10.40;;
82415;SDS011;72058;47.782;10.618;2023-12-04T05:02:23;10.57;;;9.77;;
82415;SDS011;72058;47.782;10.618;2023-12-04T05:04:48;9.97;;;9.20;;
82415;SDS011;72058;47.782;10.618;2023-12-04T05:07:13;8.03;;;7.17;;
82415;SDS011;72058;47.782;10.618;2023-12-04T05:09:39;11.02;;;10.27;;
82415;SDS011;72058;47.782;10.618;2023-12-04T05:12:04;13.97;;;10.33;;
82415;SDS011;72058;47.782;10.618;2023-12-04T05:14:30;9.90;;;9.15;;
82415;SDS011;72058;47.782;10.618;2023-12-04T05:16:55;9.48;;;8.77;;
82415;SDS011;72058;47.782;10.618;2023-12-04T05:19:21;9.77;;;8.97;;
82415;SDS011;72058;47.782;10.618;2023-12-04T05:21:46;11.13;;;10.27;;
82415;SDS011;72058;47.782;10.618;2023-12-04T05:24:11;11.97;;;10.77;;
82415;SDS011;72058;47.782;10.618;2023-12-04T05:26:37;11.77;;;10.73;;
82415;SDS011;72058;47.782;10.618;2023-12-04T05:29:02;11.20;;;8.57;;
82415;SDS011;72058;47.782;10.618;2023-12-04T05:31:27;10.52;;;9.48;;
82415;SDS011;72058;47.782;10.618;2023-12-04T05:33:53;12.40;;;11.38;;
82415;SDS011;72058;47.782;10.618;2023-12-04T05:36:18;11.77;;;10.47;;
82415;SDS011;72058;47.782;10.618;2023-12-04T05:38:44;12.32;;;11.40;;
82415;SDS011;72058;47.782;10.618;2023-12-04T05:41:09;14.00;;;12.47;;
82415;SDS011;72058;47.782;10.618;2023-12-04T05:43:34;15.05;;;11.30;;
82415;SDS011;72058;47.782;10.618;2023-12-04T05:46:00;15.48;;;13.73;;
82415;SDS011;72058;47.782;10.618;2023-12-04T05:48:25;13.67;;;11.63;;
82415;SDS011;72058;47.782;10.618;2023-12-04T05:50:51;11.03;;;8.63;;
82415;SDS011;72058;47.782;10.618;2023-12-04T05:53:16;12.50;;;11.27;;
82415;SDS011;72058;47.782;10.618;2023-12-04T05:55:41;11.98;;;10.77;;
82415;SDS011;72058;47.782;10.618;2023-12-04T05:58:07;15.73;;;12.23;;
82415;SDS011;72058;47.782;10.618;2023-12-04T06:00:32;13.67;;;12.40;;
82415;SDS011;72058;47.782;10.618;2023-12-04T06:02:57;14.03;;;12.90;;
82415;SDS011;72058;47.782;10.618;2023-12-04T06:05:23;10.27;;;9.35;;
82415;SDS011;72058;47.782;10.618;2023-12-04T06:07:48;12.23;;;11.35;;
82415;SDS011;72058;47.782;10.618;2023-12-04T06:10:14;13.27;;;12.17;;
82415;SDS011;72058;47.782;10.618;2023-12-04T06:12:39;12.27;;;11.37;;
82415;SDS011;72058;47.782;10.618;2023-12-04T06:15:05;11.23;;;10.40;;
82415;SDS011;72058;47.782;10.618;2023-12-04T06:17:30;10.48;;;9.57;;
82415;SDS011;72058;47.782;10.618;2023-12-04T06:19:56;8.87;;;7.97;;
82415;SDS011;72058;47.782;10.618;2023-12-04T06:22:21;10.60;;;9.57;;
82415;SDS011;72058;47.782;10.618;2023-12-04T06:24:47;11.73;;;10.43;;
82415;SDS011;72058;47.782;10.618;2023-12-04T06:27:15;14.90;;;13.60;;
82415;SDS011;72058;47.782;10.618;2023-12-04T06:29:41;12.05;;;11.02;;
82415;SDS011;72058;47.782;10.618;2023-12-04T06:32:07;11.48;;;10.48;;
82415;SDS011;72058;47.782;10.618;2023-12-04T06:34:33;13.48;;;12.25;;
82415;SDS011;72058;47.782;10.618;2023-12-04T06:36:59;10.88;;;9.00;;
82415;SDS011;72058;47.782;10.618;2023-12-04T06:39:26;14.43;;;13.20;;
82415;SDS011;72058;47.782;10.618;2023-12-04T06:41:57;12.73;;;9.70;;
82415;SDS011;72058;47.782;10.618;2023-12-04T06:44:23;16.83;;;15.25;;
82415;SDS011;72058;47.782;10.618;2023-12-04T06:46:49;14.43;;;13.13;;
82415;SDS011;72058;47.782;10.618;2023-12-04T06:49:16;12.63;;;11.60;;
82415;SDS011;72058;47.782;10.618;2023-12-04T06:51:42;13.05;;;12.10;;
82415;SDS011;72058;47.782;10.618;2023-12-04T06:54:07;13.33;;;12.30;;
82415;SDS011;72058;47.782;10.618;2023-12-04T06:56:33;11.47;;;10.43;;
82415;SDS011;72058;47.782;10.618;2023-12-04T06:58:58;10.30;;;9.37;;
82415;SDS011;72058;47.782;10.618;2023-12-04T07:01:23;9.83;;;9.10;;
82415;SDS011;72058;47.782;10.618;2023-12-04T07:03:49;9.90;;;7.23;;
82415;SDS011;72058;47.782;10.618;2023-12-04T07:06:14;12.30;;;11.30;;
82415;SDS011;72058;47.782;10.618;2023-12-04T07:08:39;13.37;;;12.43;;
82415;SDS011;72058;47.782;10.618;2023-12-04T07:11:05;12.32;;;11.38;;
82415;SDS011;72058;47.782;10.618;2023-12-04T07:13:33;12.02;;;11.10;;
82415;SDS011;72058;47.782;10.618;2023-12-04T07:15:58;14.80;;;13.25;;
82415;SDS011;72058;47.782;10.618;2023-12-04T07:18:24;16.00;;;14.40;;
82415;SDS011;72058;47.782;10.618;2023-12-04T07:20:50;19.23;;;16.08;;
82415;SDS011;72058;47.782;10.618;2023-12-04T07:23:16;16.50;;;14.77;;
82415;SDS011;72058;47.782;10.618;2023-12-04T07:25:41;17.83;;;16.03;;
82415;SDS011;72058;47.782;10.618;2023-12-04T07:28:06;14.43;;;12.53;;
82415;SDS011;72058;47.782;10.618;2023-12-04T07:30:32;15.70;;;12.70;;
82415;SDS011;72058;47.782;10.618;2023-12-04T07:32:57;15.63;;;13.83;;
82415;SDS011;72058;47.782;10.618;2023-12-04T07:35:22;12.70;;;9.33;;
82415;SDS011;72058;47.782;10.618;2023-12-04T07:37:48;11.60;;;10.40;;
82415;SDS011;72058;47.782;10.618;2023-12-04T07:40:13;9.52;;;8.73;;
82415;SDS011;72058;47.782;10.618;2023-12-04T07:42:39;10.88;;;10.05;;
82415;SDS011;72058;47.782;10.618;2023-12-04T07:45:04;11.35;;;10.35;;
82415;SDS011;72058;47.782;10.618;2023-12-04T07:47:30;9.25;;;8.45;;
82415;SDS011;72058;47.782;10.618;2023-12-04T07:49:55;11.90;;;10.67;;
82415;SDS011;72058;47.782;10.618;2023-12-04T07:52:21;10.23;;;9.37;;
82415;SDS011;72058;47.782;10.618;2023-12-04T07:54:46;9.93;;;9.15;;
82415;SDS011;72058;47.782;10.618;2023-12-04T07:57:12;10.07;;;9.27;;
82415;SDS011;72058;47.782;10.618;2023-12-04T07:59:37;9.87;;;8.90;;
82415;SDS011;72058;47.782;10.618;2023-12-04T08:02:02;10.18;;;9.27;;
82415;SDS011;72058;47.782;10.618;2023-12-04T08:04:28;9.02;;;8.35;;
82415;SDS011;72058;47.782;10.618;2023-12-04T08:06:53;12.32;;;11.25;;
82415;SDS011;72058;47.782;10.618;2023-12-04T08:09:19;11.93;;;10.77;;
82415;SDS011;72058;47.782;10.618;2023-12-04T08:11:45;9.57;;;8.47;;
82415;SDS011;72058;47.782;10.618;2023-12-04T08:14:10;9.20;;;7.95;;
82415;SDS011;72058;47.782;10.618;2023-12-04T08:16:35;10.75;;;9.50;;
82415;SDS011;72058;47.782;10.618;2023-12-04T08:19:01;12.17;;;10.97;;
82415;SDS011;72058;47.782;10.618;2023-12-04T08:21:26;10.50;;;9.50;;
82415;SDS011;72058;47.782;10.618;2023-12-04T08:23:52;10.90;;;10.10;;
82415;SDS011;72058;47.782;10.618;2023-12-04T08:26:24;7.97;;;7.18;;
82415;SDS011;72058;47.782;10.618;2023-12-04T08:28:50;11.05;;;10.05;;
82415;SDS011;72058;47.782;10.618;2023-12-04T08:31:16;13.68;;;12.48;;
82415;SDS011;72058;47.782;10.618;2023-12-04T08:33:42;13.52;;;12.15;;
82415;SDS011;72058;47.782;10.618;2023-12-04T08:36:08;14.48;;;13.25;;
82415;SDS011;72058;47.782;10.618;2023-12-04T08:38:34;11.82;;;10.57;;
82415;SDS011;72058;47.782;10.618;2023-12-04T08:41:00;10.52;;;9.63;;
82415;SDS011;72058;47.782;10.618;2023-12-04T08:43:25;11.10;;;10.15;;
82415;SDS011;72058;47.782;10.618;2023-12-04T08:45:50;10.33;;;9.43;;
82415;SDS011;72058;47.782;10.618;2023-12-04T08:48:16;11.57;;;10.57;;
82415;SDS011;72058;47.782;10.618;2023-12-04T08:50:41;12.30;;;11.10;;
82415;SDS011;72058;47.782;10.618;2023-12-04T08:53:06;13.43;;;12.10;;
82415;SDS011;72058;47.782;10.618;2023-12-04T08:55:32;13.27;;;11.77;;
82415;SDS011;72058;47.782;10.618;2023-12-04T08:57:57;19.90;;;13.53;;
82415;SDS011;72058;47.782;10.618;2023-12-04T09:00:22;15.63;;;14.03;;
82415;SDS011;72058;47.782;10.618;2023-12-04T09:02:48;16.13;;;14.43;;
82415;SDS011;72058;47.782;10.618;2023-12-04T09:05:13;16.77;;;15.17;;
82415;SDS011;72058;47.782;10.618;2023-12-04T09:07:39;14.95;;;13.35;;
82415;SDS011;72058;47.782;10.618;2023-12-04T09:10:05;14.27;;;11.95;;
82415;SDS011;72058;47.782;10.618;2023-12-04T09:12:30;17.55;;;15.32;;
82415;SDS011;72058;47.782;10.618;2023-12-04T09:14:56;19.35;;;15.27;;
82415;SDS011;72058;47.782;10.618;2023-12-04T09:17:21;18.40;;;14.60;;
82415;SDS011;72058;47.782;10.618;2023-12-04T09:19:46;13.37;;;12.23;;
82415;SDS011;72058;47.782;10.618;2023-12-04T09:22:12;12.80;;;11.60;;
82415;SDS011;72058;47.782;10.618;2023-12-04T09:24:37;11.17;;;10.03;;
82415;SDS011;72058;47.782;10.618;2023-12-04T09:27:02;12.27;;;11.17;;
82415;SDS011;72058;47.782;10.618;2023-12-04T09:29:28;12.63;;;11.32;;
82415;SDS011;72058;47.782;10.618;2023-12-04T09:31:53;11.20;;;10.00;;
82415;SDS011;72058;47.782;10.618;2023-12-04T09:34:19;13.00;;;11.77;;
82415;SDS011;72058;47.782;10.618;2023-12-04T09:36:45;14.90;;;12.80;;
82415;SDS011;72058;47.782;10.618;2023-12-04T09:39:12;15.18;;;13.70;;
82415;SDS011;72058;47.782;10.618;2023-12-04T09:41:38;14.57;;;12.88;;
82415;SDS011;72058;47.782;10.618;2023-12-04T09:46:32;13.60;;;10.25;;
82415;SDS011;72058;47.782;10.618;2023-12-04T09:48:59;18.50;;;15.35;;
82415;SDS011;72058;47.782;10.618;2023-12-04T09:51:24;20.33;;;16.73;;
82415;SDS011;72058;47.782;10.618;2023-12-04T09:53:52;23.33;;;18.38;;
82415;SDS011;72058;47.782;10.618;2023-12-04T09:56:17;23.85;;;18.63;;
82415;SDS011;72058;47.782;10.618;2023-12-04T09:58:43;23.48;;;19.30;;
82415;SDS011;72058;47.782;10.618;2023-12-04T10:01:10;22.85;;;18.77;;
82415;SDS011;72058;47.782;10.618;2023-12-04T10:03:36;23.75;;;18.08;;
82415;SDS011;72058;47.782;10.618;2023-12-04T10:06:02;16.35;;;14.73;;
82415;SDS011;72058;47.782;10.618;2023-12-04T10:08:29;15.20;;;13.85;;
82415;SDS011;72058;47.782;10.618;2023-12-04T10:10:55;15.25;;;13.00;;
82415;SDS011;72058;47.782;10.618;2023-12-04T10:13:20;13.77;;;12.55;;
82415;SDS011;72058;47.782;10.618;2023-12-04T10:15:49;14.10;;;12.67;;
82415;SDS011;72058;47.782;10.618;2023-12-04T10:18:24;17.08;;;14.15;;
82415;SDS011;72058;47.782;10.618;2023-12-04T10:20:51;15.10;;;12.07;;
82415;SDS011;72058;47.782;10.618;2023-12-04T10:23:19;15.80;;;13.45;;
82415;SDS011;72058;47.782;10.618;2023-12-04T10:25:45;15.52;;;11.93;;
82415;SDS011;72058;47.782;10.618;2023-12-04T10:28:12;15.35;;;11.23;;
82415;SDS011;72058;47.782;10.618;2023-12-04T10:30:38;15.80;;;14.20;;
82415;SDS011;72058;47.782;10.618;2023-12-04T10:33:04;15.32;;;12.50;;
82415;SDS011;72058;47.782;10.618;2023-12-04T10:35:34;15.82;;;12.18;;
82415;SDS011;72058;47.782;10.618;2023-12-04T10:38:06;15.60;;;11.77;;
82415;SDS011;72058;47.782;10.618;2023-12-04T10:40:33;17.52;;;14.13;;
82415;SDS011;72058;47.782;10.618;2023-12-04T10:45:34;18.45;;;16.48;;
82415;SDS011;72058;47.782;10.618;2023-12-04T10:48:00;15.52;;;13.93;;
82415;SDS011;72058;47.782;10.618;2023-12-04T10:50:29;14.80;;;13.27;;
82415;SDS011;72058;47.782;10.618;2023-12-04T10:52:57;14.88;;;12.63;;
82415;SDS011;72058;47.782;10.618;2023-12-04T10:55:23;16.33;;;13.13;;
82415;SDS011;72058;47.782;10.618;2023-12-04T10:57:49;16.15;;;14.43;;
82415;SDS011;72058;47.782;10.618;2023-12-04T11:00:16;17.58;;;15.88;;
82415;SDS011;72058;47.782;10.618;2023-12-04T11:02:43;15.75;;;14.05;;
82415;SDS011;72058;47.782;10.618;2023-12-04T11:05:13;10.18;;;8.95;;
82415;SDS011;72058;47.782;10.618;2023-12-04T11:07:44;14.63;;;12.98;;
82415;SDS011;72058;47.782;10.618;2023-12-04T11:10:14;14.43;;;12.98;;
82415;SDS011;72058;47.782;10.618;2023-12-04T11:12:43;12.75;;;11.40;;
82415;SDS011;72058;47.782;10.618;2023-12-04T11:15:10;12.63;;;11.43;;
82415;SDS011;72058;47.782;10.618;2023-12-04T11:17:39;13.68;;;12.38;;
82415;SDS011;72058;47.782;10.618;2023-12-04T11:20:09;13.75;;;11.23;;
82415;SDS011;72058;47.782;10.618;2023-12-04T11:22:38;15.38;;;13.65;;
82415;SDS011;72058;47.782;10.618;2023-12-04T11:25:05;12.68;;;10.80;;
82415;SDS011;72058;47.782;10.618;2023-12-04T11:27:32;15.00;;;13.43;;
82415;SDS011;72058;47.782;10.618;2023-12-04T11:29:59;16.30;;;14.65;;
82415;SDS011;72058;47.782;10.618;2023-12-04T11:32:28;12.70;;;11.40;;
82415;SDS011;72058;47.782;10.618;2023-12-04T11:34:54;17.17;;;13.85;;
82415;SDS011;72058;47.782;10.618;2023-12-04T11:37:21;16.02;;;14.00;;
82415;SDS011;72058;47.782;10.618;2023-12-04T11:42:18;13.93;;;12.57;;
82415;SDS011;72058;47.782;10.618;2023-12-04T11:44:58;13.55;;;12.07;;
82415;SDS011;72058;47.782;10.618;2023-12-04T11:47:24;14.05;;;12.65;;
82415;SDS011;72058;47.782;10.618;2023-12-04T11:49:49;11.85;;;10.13;;
82415;SDS011;72058;47.782;10.618;2023-12-04T11:52:14;13.48;;;11.30;;
82415;SDS011;72058;47.782;10.618;2023-12-04T11:57:26;13.50;;;12.38;;
82415;SDS011;72058;47.782;10.618;2023-12-04T12:02:46;10.77;;;9.02;;
82415;SDS011;72058;47.782;10.618;2023-12-04T12:05:17;12.27;;;9.13;;
82415;SDS011;72058;47.782;10.618;2023-12-04T12:07:44;9.90;;;9.15;;
82415;SDS011;72058;47.782;10.618;2023-12-04T12:10:10;13.48;;;10.85;;
82415;SDS011;72058;47.782;10.618;2023-12-04T12:12:37;13.18;;;11.82;;
82415;SDS011;72058;47.782;10.618;2023-12-04T12:15:10;14.68;;;13.15;;
82415;SDS011;72058;47.782;10.618;2023-12-04T12:17:40;13.10;;;11.32;;
82415;SDS011;72058;47.782;10.618;2023-12-04T12:20:06;14.20;;;12.85;;
82415;SDS011;72058;47.782;10.618;2023-12-04T12:22:38;16.52;;;12.90;;
82415;SDS011;72058;47.782;10.618;2023-12-04T12:25:08;12.65;;;11.48;;
82415;SDS011;72058;47.782;10.618;2023-12-04T12:27:35;15.05;;;12.60;;
82415;SDS011;72058;47.782;10.618;2023-12-04T12:30:01;13.68;;;12.38;;
82415;SDS011;72058;47.782;10.618;2023-12-04T12:32:29;15.15;;;12.73;;
82415;SDS011;72058;47.782;10.618;2023-12-04T12:34:56;16.42;;;14.23;;
82415;SDS011;72058;47.782;10.618;2023-12-04T12:37:22;15.40;;;12.63;;
82415;SDS011;72058;47.782;10.618;2023-12-04T12:39:47;15.57;;;13.73;;
82415;SDS011;72058;47.782;10.618;2023-12-04T12:42:23;16.88;;;15.07;;
82415;SDS011;72058;47.782;10.618;2023-12-04T12:44:52;19.25;;;14.57;;
82415;SDS011;72058;47.782;10.618;2023-12-04T12:47:18;17.10;;;15.40;;
82415;SDS011;72058;47.782;10.618;2023-12-04T12:49:44;19.67;;;15.45;;
82415;SDS011;72058;47.782;10.618;2023-12-04T12:52:10;18.13;;;16.20;;
82415;SDS011;72058;47.782;10.618;2023-12-04T12:54:42;25.25;;;18.02;;
82415;SDS011;72058;47.782;10.618;2023-12-04T12:57:09;21.42;;;16.77;;
82415;SDS011;72058;47.782;10.618;2023-12-04T13:02:02;17.00;;;15.32;;
82415;SDS011;72058;47.782;10.618;2023-12-04T13:04:42;20.35;;;15.25;;
82415;SDS011;72058;47.782;10.618;2023-12-04T13:07:08;19.48;;;14.13;;
82415;SDS011;72058;47.782;10.618;2023-12-04T13:09:34;19.38;;;14.90;;
82415;SDS011;72058;47.782;10.618;2023-12-04T13:12:03;20.75;;;15.27;;
82415;SDS011;72058;47.782;10.618;2023-12-04T13:14:30;24.25;;;17.83;;
82415;SDS011;72058;47.782;10.618;2023-12-04T13:16:56;23.13;;;17.30;;
82415;SDS011;72058;47.782;10.618;2023-12-04T13:19:22;22.67;;;17.40;;
82415;SDS011;72058;47.782;10.618;2023-12-04T13:21:47;22.17;;;15.45;;
82415;SDS011;72058;47.782;10.618;2023-12-04T13:24:13;21.25;;;16.35;;
82415;SDS011;72058;47.782;10.618;2023-12-04T13:26:41;24.57;;;17.70;;
82415;SDS011;72058;47.782;10.618;2023-12-04T13:29:06;16.08;;;14.15;;
82415;SDS011;72058;47.782;10.618;2023-12-04T13:31:36;15.10;;;13.20;;
82415;SDS011;72058;47.782;10.618;2023-12-04T13:34:01;14.50;;;12.65;;
82415;SDS011;72058;47.782;10.618;2023-12-04T13:36:28;14.07;;;12.00;;
82415;SDS011;72058;47.782;10.618;2023-12-04T13:38:53;12.63;;;11.52;;
82415;SDS011;72058;47.782;10.618;2023-12-04T13:41:19;13.82;;;12.00;;
82415;SDS011;72058;47.782;10.618;2023-12-04T13:44:03;13.65;;;11.18;;
82415;SDS011;72058;47.782;10.618;2023-12-04T13:46:29;16.83;;;12.90;;
82415;SDS011;72058;47.782;10.618;2023-12-04T13:48:55;15.98;;;12.57;;
82415;SDS011;72058;47.782;10.618;2023-12-04T13:51:21;17.17;;;13.10;;
82415;SDS011;72058;47.782;10.618;2023-12-04T13:53:47;17.60;;;14.05;;
82415;SDS011;72058;47.782;10.618;2023-12-04T13:56:15;14.18;;;12.60;;
82415;SDS011;72058;47.782;10.618;2023-12-04T13:58:50;15.85;;;13.65;;
82415;SDS011;72058;47.782;10.618;2023-12-04T14:01:24;15.32;;;13.48;;
82415;SDS011;72058;47.782;10.618;2023-12-04T14:03:53;14.73;;;12.57;;
82415;SDS011;72058;47.782;10.618;2023-12-04T14:06:19;15.93;;;14.23;;
82415;SDS011;72058;47.782;10.618;2023-12-04T14:08:45;15.65;;;14.05;;
82415;SDS011;72058;47.782;10.618;2023-12-04T14:11:11;13.93;;;12.52;;
82415;SDS011;72058;47.782;10.618;2023-12-04T14:13:37;14.57;;;12.35;;
82415;SDS011;72058;47.782;10.618;2023-12-04T14:16:04;13.32;;;12.02;;
82415;SDS011;72058;47.782;10.618;2023-12-04T14:18:30;14.45;;;13.18;;
82415;SDS011;72058;47.782;10.618;2023-12-04T14:20:56;15.40;;;13.88;;
82415;SDS011;72058;47.782;10.618;2023-12-04T14:23:22;14.15;;;12.68;;